sensor_id;sensor_type;location;lat;lon;timestamp;P1;durP1;ratioP1;P2;durP2;ratioP2
56794;SDS011;42678;59.400;18.410;2022-12-29T00:01:57;127.15;;;11.38;;
56794;SDS011;42678;59.400;18.410;2022-12-29T00:04:23;99.30;;;9.02;;
56794;SDS011;42678;59.400;18.410;2022-12-29T00:06:48;113.35;;;9.00;;
56794;SDS011;42678;59.400;18.410;2022-12-29T00:09:14;79.97;;;8.27;;
56794;SDS011;42678;59.400;18.410;2022-12-29T00:11:40;30.88;;;6.85;;
56794;SDS011;42678;59.400;18.410;2022-12-29T00:14:06;50.90;;;8.35;;
56794;SDS011;42678;59.400;18.410;2022-12-29T00:16:50;37.85;;;7.30;;
56794;SDS011;42678;59.400;18.410;2022-12-29T00:19:15;35.95;;;7.60;;
56794;SDS011;42678;59.400;18.410;2022-12-29T00:21:59;30.48;;;7.18;;
56794;SDS011;42678;59.400;18.410;2022-12-29T00:24:44;31.67;;;7.57;;
56794;SDS011;42678;59.400;18.410;2022-12-29T00:27:18;52.75;;;8.80;;
56794;SDS011;42678;59.400;18.410;2022-12-29T00:30:04;33.42;;;8.35;;
56794;SDS011;42678;59.400;18.410;2022-12-29T00:32:51;43.45;;;8.68;;
56794;SDS011;42678;59.400;18.410;2022-12-29T00:35:38;36.83;;;8.57;;
56794;SDS011;42678;59.400;18.410;2022-12-29T00:38:05;36.80;;;8.48;;
56794;SDS011;42678;59.400;18.410;2022-12-29T00:40:50;32.28;;;7.60;;
56794;SDS011;42678;59.400;18.410;2022-12-29T00:43:34;32.95;;;7.75;;
56794;SDS011;42678;59.400;18.410;2022-12-29T00:46:18;80.85;;;9.88;;
56794;SDS011;42678;59.400;18.410;2022-12-29T00:48:44;47.80;;;9.70;;
56794;SDS011;42678;59.400;18.410;2022-12-29T00:51:28;83.05;;;10.00;;
56794;SDS011;42678;59.400;18.410;2022-12-29T00:53:53;74.65;;;8.73;;
56794;SDS011;42678;59.400;18.410;2022-12-29T00:56:19;41.15;;;7.38;;
56794;SDS011;42678;59.400;18.410;2022-12-29T00:58:44;28.25;;;6.80;;
56794;SDS011;42678;59.400;18.410;2022-12-29T01:01:10;23.45;;;6.00;;
56794;SDS011;42678;59.400;18.410;2022-12-29T01:03:35;18.33;;;4.88;;
56794;SDS011;42678;59.400;18.410;2022-12-29T01:06:02;29.27;;;6.55;;
56794;SDS011;42678;59.400;18.410;2022-12-29T01:08:28;41.20;;;6.78;;
56794;SDS011;42678;59.400;18.410;2022-12-29T01:11:00;52.80;;;7.68;;
56794;SDS011;42678;59.400;18.410;2022-12-29T01:13:25;71.05;;;7.47;;
56794;SDS011;42678;59.400;18.410;2022-12-29T01:15:51;110.03;;;9.13;;
56794;SDS011;42678;59.400;18.410;2022-12-29T01:18:17;74.97;;;8.43;;
56794;SDS011;42678;59.400;18.410;2022-12-29T01:20:42;128.63;;;9.68;;
56794;SDS011;42678;59.400;18.410;2022-12-29T01:23:08;50.30;;;6.63;;
56794;SDS011;42678;59.400;18.410;2022-12-29T01:25:33;125.88;;;9.27;;
56794;SDS011;42678;59.400;18.410;2022-12-29T01:27:58;40.58;;;6.97;;
56794;SDS011;42678;59.400;18.410;2022-12-29T01:30:24;59.53;;;7.68;;
56794;SDS011;42678;59.400;18.410;2022-12-29T01:32:49;29.73;;;6.90;;
56794;SDS011;42678;59.400;18.410;2022-12-29T01:35:16;38.80;;;7.10;;
56794;SDS011;42678;59.400;18.410;2022-12-29T01:37:41;46.00;;;7.47;;
56794;SDS011;42678;59.400;18.410;2022-12-29T01:40:07;80.43;;;8.68;;
56794;SDS011;42678;59.400;18.410;2022-12-29T01:42:32;46.47;;;7.63;;
56794;SDS011;42678;59.400;18.410;2022-12-29T01:45:16;142.65;;;12.00;;
56794;SDS011;42678;59.400;18.410;2022-12-29T01:47:56;65.65;;;7.57;;
56794;SDS011;42678;59.400;18.410;2022-12-29T01:50:32;34.97;;;6.88;;
56794;SDS011;42678;59.400;18.410;2022-12-29T01:52:59;62.83;;;7.72;;
56794;SDS011;42678;59.400;18.410;2022-12-29T01:55:27;36.50;;;6.30;;
56794;SDS011;42678;59.400;18.410;2022-12-29T01:57:55;40.00;;;5.72;;
56794;SDS011;42678;59.400;18.410;2022-12-29T02:00:22;40.20;;;7.25;;
56794;SDS011;42678;59.400;18.410;2022-12-29T02:02:49;194.15;;;13.43;;
56794;SDS011;42678;59.400;18.410;2022-12-29T02:06:17;47.85;;;6.70;;
56794;SDS011;42678;59.400;18.410;2022-12-29T02:08:10;51.13;;;6.57;;
56794;SDS011;42678;59.400;18.410;2022-12-29T02:10:36;57.10;;;6.63;;
56794;SDS011;42678;59.400;18.410;2022-12-29T02:13:02;67.97;;;7.53;;
56794;SDS011;42678;59.400;18.410;2022-12-29T02:20:42;69.47;;;8.82;;
56794;SDS011;42678;59.400;18.410;2022-12-29T02:36:24;28.02;;;5.80;;
56794;SDS011;42678;59.400;18.410;2022-12-29T02:38:59;52.22;;;7.45;;
56794;SDS011;42678;59.400;18.410;2022-12-29T02:43:59;49.05;;;5.88;;
56794;SDS011;42678;59.400;18.410;2022-12-29T02:51:19;29.35;;;6.75;;
56794;SDS011;42678;59.400;18.410;2022-12-29T02:53:46;52.55;;;6.53;;
56794;SDS011;42678;59.400;18.410;2022-12-29T02:56:30;34.22;;;7.25;;
56794;SDS011;42678;59.400;18.410;2022-12-29T02:58:55;16.92;;;5.65;;
56794;SDS011;42678;59.400;18.410;2022-12-29T03:06:35;19.90;;;6.25;;
56794;SDS011;42678;59.400;18.410;2022-12-29T03:11:57;21.25;;;7.47;;
56794;SDS011;42678;59.400;18.410;2022-12-29T03:17:24;21.70;;;7.85;;
56794;SDS011;42678;59.400;18.410;2022-12-29T03:19:51;21.27;;;6.35;;
56794;SDS011;42678;59.400;18.410;2022-12-29T03:22:19;24.75;;;8.27;;
56794;SDS011;42678;59.400;18.410;2022-12-29T03:24:57;20.35;;;7.57;;
56794;SDS011;42678;59.400;18.410;2022-12-29T03:27:24;23.42;;;8.48;;
56794;SDS011;42678;59.400;18.410;2022-12-29T03:29:53;21.55;;;7.25;;
56794;SDS011;42678;59.400;18.410;2022-12-29T03:32:20;23.58;;;8.52;;
56794;SDS011;42678;59.400;18.410;2022-12-29T03:34:47;19.52;;;8.10;;
56794;SDS011;42678;59.400;18.410;2022-12-29T03:37:15;30.05;;;8.90;;
56794;SDS011;42678;59.400;18.410;2022-12-29T03:39:42;19.40;;;9.10;;
56794;SDS011;42678;59.400;18.410;2022-12-29T03:42:11;23.60;;;8.90;;
56794;SDS011;42678;59.400;18.410;2022-12-29T03:44:39;25.35;;;8.73;;
56794;SDS011;42678;59.400;18.410;2022-12-29T03:47:05;22.45;;;7.72;;
56794;SDS011;42678;59.400;18.410;2022-12-29T03:49:31;20.85;;;7.40;;
56794;SDS011;42678;59.400;18.410;2022-12-29T03:51:56;18.70;;;6.90;;
56794;SDS011;42678;59.400;18.410;2022-12-29T03:54:22;16.50;;;8.05;;
56794;SDS011;42678;59.400;18.410;2022-12-29T03:56:47;20.38;;;8.68;;
56794;SDS011;42678;59.400;18.410;2022-12-29T03:59:13;17.13;;;7.88;;
56794;SDS011;42678;59.400;18.410;2022-12-29T04:01:38;16.35;;;7.80;;
56794;SDS011;42678;59.400;18.410;2022-12-29T04:04:04;17.17;;;7.03;;
56794;SDS011;42678;59.400;18.410;2022-12-29T04:06:29;12.50;;;6.28;;
56794;SDS011;42678;59.400;18.410;2022-12-29T04:08:54;15.82;;;7.85;;
56794;SDS011;42678;59.400;18.410;2022-12-29T04:11:20;14.95;;;7.50;;
56794;SDS011;42678;59.400;18.410;2022-12-29T04:13:46;13.23;;;6.90;;
56794;SDS011;42678;59.400;18.410;2022-12-29T04:16:11;13.27;;;6.65;;
56794;SDS011;42678;59.400;18.410;2022-12-29T04:18:37;11.75;;;6.60;;
56794;SDS011;42678;59.400;18.410;2022-12-29T04:21:03;15.60;;;7.13;;
56794;SDS011;42678;59.400;18.410;2022-12-29T04:23:34;16.27;;;7.80;;
56794;SDS011;42678;59.400;18.410;2022-12-29T04:25:59;17.02;;;8.38;;
56794;SDS011;42678;59.400;18.410;2022-12-29T04:28:25;9.85;;;5.40;;
56794;SDS011;42678;59.400;18.410;2022-12-29T04:30:51;12.98;;;6.05;;
56794;SDS011;42678;59.400;18.410;2022-12-29T04:33:16;12.10;;;7.90;;
56794;SDS011;42678;59.400;18.410;2022-12-29T04:35:42;13.82;;;7.20;;
56794;SDS011;42678;59.400;18.410;2022-12-29T04:38:08;12.55;;;6.85;;
56794;SDS011;42678;59.400;18.410;2022-12-29T04:40:33;17.65;;;6.60;;
56794;SDS011;42678;59.400;18.410;2022-12-29T04:42:59;13.52;;;7.55;;
56794;SDS011;42678;59.400;18.410;2022-12-29T04:45:24;10.90;;;6.25;;
56794;SDS011;42678;59.400;18.410;2022-12-29T04:47:50;18.80;;;7.25;;
56794;SDS011;42678;59.400;18.410;2022-12-29T04:50:15;12.05;;;6.45;;
56794;SDS011;42678;59.400;18.410;2022-12-29T04:52:40;12.60;;;6.65;;
56794;SDS011;42678;59.400;18.410;2022-12-29T04:55:06;16.90;;;6.78;;
56794;SDS011;42678;59.400;18.410;2022-12-29T04:57:32;10.95;;;5.45;;
56794;SDS011;42678;59.400;18.410;2022-12-29T04:59:57;10.55;;;6.32;;
56794;SDS011;42678;59.400;18.410;2022-12-29T05:02:23;12.70;;;7.78;;
56794;SDS011;42678;59.400;18.410;2022-12-29T05:04:48;12.90;;;6.25;;
56794;SDS011;42678;59.400;18.410;2022-12-29T05:07:14;14.48;;;6.25;;
56794;SDS011;42678;59.400;18.410;2022-12-29T05:09:39;11.38;;;5.15;;
56794;SDS011;42678;59.400;18.410;2022-12-29T05:12:05;11.32;;;5.53;;
56794;SDS011;42678;59.400;18.410;2022-12-29T05:14:31;9.07;;;5.15;;
56794;SDS011;42678;59.400;18.410;2022-12-29T05:16:56;9.35;;;5.80;;
56794;SDS011;42678;59.400;18.410;2022-12-29T05:19:22;10.80;;;5.82;;
56794;SDS011;42678;59.400;18.410;2022-12-29T05:21:47;11.48;;;7.32;;
56794;SDS011;42678;59.400;18.410;2022-12-29T05:24:13;12.45;;;5.88;;
56794;SDS011;42678;59.400;18.410;2022-12-29T05:26:39;9.65;;;4.45;;
56794;SDS011;42678;59.400;18.410;2022-12-29T05:29:04;12.57;;;6.15;;
56794;SDS011;42678;59.400;18.410;2022-12-29T05:31:30;13.80;;;7.53;;
56794;SDS011;42678;59.400;18.410;2022-12-29T05:33:55;15.45;;;6.60;;
56794;SDS011;42678;59.400;18.410;2022-12-29T05:36:20;15.13;;;7.28;;
56794;SDS011;42678;59.400;18.410;2022-12-29T05:38:46;12.07;;;7.50;;
56794;SDS011;42678;59.400;18.410;2022-12-29T05:41:11;17.48;;;5.68;;
56794;SDS011;42678;59.400;18.410;2022-12-29T05:43:37;16.33;;;6.75;;
56794;SDS011;42678;59.400;18.410;2022-12-29T05:46:02;16.48;;;6.70;;
56794;SDS011;42678;59.400;18.410;2022-12-29T05:48:28;12.40;;;6.30;;
56794;SDS011;42678;59.400;18.410;2022-12-29T05:50:53;17.13;;;7.57;;
56794;SDS011;42678;59.400;18.410;2022-12-29T05:53:19;15.15;;;7.78;;
56794;SDS011;42678;59.400;18.410;2022-12-29T05:55:45;15.40;;;7.25;;
56794;SDS011;42678;59.400;18.410;2022-12-29T05:58:11;13.77;;;7.22;;
56794;SDS011;42678;59.400;18.410;2022-12-29T06:00:37;12.98;;;6.60;;
56794;SDS011;42678;59.400;18.410;2022-12-29T06:03:02;16.52;;;7.55;;
56794;SDS011;42678;59.400;18.410;2022-12-29T06:05:29;12.02;;;7.43;;
56794;SDS011;42678;59.400;18.410;2022-12-29T06:07:54;16.15;;;7.60;;
56794;SDS011;42678;59.400;18.410;2022-12-29T06:10:20;15.18;;;7.20;;
56794;SDS011;42678;59.400;18.410;2022-12-29T06:12:46;16.48;;;7.82;;
56794;SDS011;42678;59.400;18.410;2022-12-29T06:15:12;16.98;;;7.90;;
56794;SDS011;42678;59.400;18.410;2022-12-29T06:17:37;19.92;;;8.57;;
56794;SDS011;42678;59.400;18.410;2022-12-29T06:20:03;16.52;;;8.38;;
56794;SDS011;42678;59.400;18.410;2022-12-29T06:22:28;14.02;;;6.63;;
56794;SDS011;42678;59.400;18.410;2022-12-29T06:24:54;18.58;;;7.32;;
56794;SDS011;42678;59.400;18.410;2022-12-29T06:27:19;24.60;;;8.35;;
56794;SDS011;42678;59.400;18.410;2022-12-29T06:29:44;11.95;;;5.47;;
56794;SDS011;42678;59.400;18.410;2022-12-29T06:32:11;27.05;;;7.57;;
56794;SDS011;42678;59.400;18.410;2022-12-29T06:34:36;12.40;;;5.93;;
56794;SDS011;42678;59.400;18.410;2022-12-29T06:37:02;25.88;;;7.32;;
56794;SDS011;42678;59.400;18.410;2022-12-29T06:39:27;30.60;;;8.48;;
56794;SDS011;42678;59.400;18.410;2022-12-29T06:41:53;24.48;;;8.63;;
56794;SDS011;42678;59.400;18.410;2022-12-29T06:44:19;28.85;;;8.55;;
56794;SDS011;42678;59.400;18.410;2022-12-29T06:46:44;25.45;;;7.32;;
56794;SDS011;42678;59.400;18.410;2022-12-29T06:49:11;28.42;;;8.45;;
56794;SDS011;42678;59.400;18.410;2022-12-29T06:51:36;30.50;;;8.57;;
56794;SDS011;42678;59.400;18.410;2022-12-29T06:54:02;32.30;;;9.32;;
56794;SDS011;42678;59.400;18.410;2022-12-29T06:56:27;37.42;;;9.60;;
56794;SDS011;42678;59.400;18.410;2022-12-29T06:58:53;27.13;;;8.68;;
56794;SDS011;42678;59.400;18.410;2022-12-29T07:01:18;31.23;;;9.32;;
56794;SDS011;42678;59.400;18.410;2022-12-29T07:03:44;32.60;;;9.77;;
56794;SDS011;42678;59.400;18.410;2022-12-29T07:06:09;41.92;;;10.73;;
56794;SDS011;42678;59.400;18.410;2022-12-29T07:08:35;28.77;;;9.70;;
56794;SDS011;42678;59.400;18.410;2022-12-29T07:11:00;57.97;;;11.57;;
56794;SDS011;42678;59.400;18.410;2022-12-29T07:13:25;44.58;;;12.40;;
56794;SDS011;42678;59.400;18.410;2022-12-29T07:15:51;51.58;;;14.00;;
56794;SDS011;42678;59.400;18.410;2022-12-29T07:18:16;55.13;;;14.00;;
56794;SDS011;42678;59.400;18.410;2022-12-29T07:20:42;42.10;;;12.93;;
56794;SDS011;42678;59.400;18.410;2022-12-29T07:23:08;44.50;;;10.55;;
56794;SDS011;42678;59.400;18.410;2022-12-29T07:25:34;46.22;;;11.52;;
56794;SDS011;42678;59.400;18.410;2022-12-29T07:28:01;37.15;;;11.85;;
56794;SDS011;42678;59.400;18.410;2022-12-29T07:30:26;101.53;;;14.40;;
56794;SDS011;42678;59.400;18.410;2022-12-29T07:32:52;43.78;;;13.25;;
56794;SDS011;42678;59.400;18.410;2022-12-29T07:35:17;110.63;;;16.30;;
56794;SDS011;42678;59.400;18.410;2022-12-29T07:37:43;46.90;;;12.98;;
56794;SDS011;42678;59.400;18.410;2022-12-29T07:40:09;60.33;;;12.35;;
56794;SDS011;42678;59.400;18.410;2022-12-29T07:42:34;68.97;;;13.68;;
56794;SDS011;42678;59.400;18.410;2022-12-29T07:45:00;59.72;;;13.23;;
56794;SDS011;42678;59.400;18.410;2022-12-29T07:47:26;37.35;;;11.48;;
56794;SDS011;42678;59.400;18.410;2022-12-29T07:49:52;49.50;;;11.90;;
56794;SDS011;42678;59.400;18.410;2022-12-29T07:52:17;57.95;;;12.25;;
56794;SDS011;42678;59.400;18.410;2022-12-29T07:54:43;48.40;;;12.25;;
56794;SDS011;42678;59.400;18.410;2022-12-29T07:57:08;38.58;;;10.95;;
56794;SDS011;42678;59.400;18.410;2022-12-29T07:59:34;42.25;;;9.63;;
56794;SDS011;42678;59.400;18.410;2022-12-29T08:01:59;27.10;;;6.32;;
56794;SDS011;42678;59.400;18.410;2022-12-29T08:04:25;37.30;;;10.57;;
56794;SDS011;42678;59.400;18.410;2022-12-29T08:06:50;26.33;;;9.23;;
56794;SDS011;42678;59.400;18.410;2022-12-29T08:09:16;25.40;;;8.90;;
56794;SDS011;42678;59.400;18.410;2022-12-29T08:11:41;27.77;;;9.02;;
56794;SDS011;42678;59.400;18.410;2022-12-29T08:14:08;20.30;;;7.47;;
56794;SDS011;42678;59.400;18.410;2022-12-29T08:16:34;21.13;;;5.53;;
56794;SDS011;42678;59.400;18.410;2022-12-29T08:18:59;16.65;;;7.07;;
56794;SDS011;42678;59.400;18.410;2022-12-29T08:21:26;20.85;;;8.10;;
56794;SDS011;42678;59.400;18.410;2022-12-29T08:23:52;15.10;;;5.72;;
56794;SDS011;42678;59.400;18.410;2022-12-29T08:26:17;11.65;;;5.15;;
56794;SDS011;42678;59.400;18.410;2022-12-29T08:28:43;15.35;;;5.28;;
56794;SDS011;42678;59.400;18.410;2022-12-29T08:31:08;14.30;;;5.32;;
56794;SDS011;42678;59.400;18.410;2022-12-29T08:33:34;10.55;;;4.70;;
56794;SDS011;42678;59.400;18.410;2022-12-29T08:36:00;14.07;;;5.88;;
56794;SDS011;42678;59.400;18.410;2022-12-29T08:38:26;13.63;;;6.45;;
56794;SDS011;42678;59.400;18.410;2022-12-29T08:40:52;13.70;;;5.28;;
56794;SDS011;42678;59.400;18.410;2022-12-29T08:43:17;14.20;;;5.85;;
56794;SDS011;42678;59.400;18.410;2022-12-29T08:45:43;13.63;;;6.03;;
56794;SDS011;42678;59.400;18.410;2022-12-29T08:48:08;12.73;;;5.97;;
56794;SDS011;42678;59.400;18.410;2022-12-29T08:50:33;18.50;;;6.85;;
56794;SDS011;42678;59.400;18.410;2022-12-29T08:52:59;17.83;;;6.78;;
56794;SDS011;42678;59.400;18.410;2022-12-29T08:55:24;18.45;;;5.88;;
56794;SDS011;42678;59.400;18.410;2022-12-29T08:57:50;22.70;;;6.75;;
56794;SDS011;42678;59.400;18.410;2022-12-29T09:00:17;22.17;;;8.32;;
56794;SDS011;42678;59.400;18.410;2022-12-29T09:02:43;13.88;;;5.20;;
56794;SDS011;42678;59.400;18.410;2022-12-29T09:05:08;12.18;;;6.30;;
56794;SDS011;42678;59.400;18.410;2022-12-29T09:07:34;12.77;;;5.53;;
56794;SDS011;42678;59.400;18.410;2022-12-29T09:10:00;11.57;;;5.60;;
56794;SDS011;42678;59.400;18.410;2022-12-29T09:12:27;6.75;;;3.28;;
56794;SDS011;42678;59.400;18.410;2022-12-29T09:14:52;7.10;;;3.83;;
56794;SDS011;42678;59.400;18.410;2022-12-29T09:17:17;6.30;;;3.20;;
56794;SDS011;42678;59.400;18.410;2022-12-29T09:20:02;7.47;;;3.55;;
56794;SDS011;42678;59.400;18.410;2022-12-29T09:22:27;4.93;;;2.70;;
56794;SDS011;42678;59.400;18.410;2022-12-29T09:24:53;5.65;;;2.50;;
56794;SDS011;42678;59.400;18.410;2022-12-29T09:27:18;6.22;;;3.22;;
56794;SDS011;42678;59.400;18.410;2022-12-29T09:29:44;5.55;;;2.60;;
56794;SDS011;42678;59.400;18.410;2022-12-29T09:32:09;3.83;;;2.30;;
56794;SDS011;42678;59.400;18.410;2022-12-29T09:34:35;3.65;;;2.13;;
56794;SDS011;42678;59.400;18.410;2022-12-29T09:37:00;2.88;;;1.70;;
56794;SDS011;42678;59.400;18.410;2022-12-29T09:39:26;3.35;;;1.38;;
56794;SDS011;42678;59.400;18.410;2022-12-29T09:42:00;3.88;;;1.52;;
56794;SDS011;42678;59.400;18.410;2022-12-29T09:47:12;34.67;;;5.28;;
56794;SDS011;42678;59.400;18.410;2022-12-29T09:49:45;0.00;;;0.00;;
56794;SDS011;42678;59.400;18.410;2022-12-29T09:52:24;0.00;;;0.00;;
56794;SDS011;42678;59.400;18.410;2022-12-29T09:59:55;0.05;;;0.00;;
56794;SDS011;42678;59.400;18.410;2022-12-29T10:04:53;0.00;;;0.00;;
56794;SDS011;42678;59.400;18.410;2022-12-29T10:09:56;0.52;;;0.52;;
56794;SDS011;42678;59.400;18.410;2022-12-29T10:25:39;0.10;;;0.03;;
56794;SDS011;42678;59.400;18.410;2022-12-29T10:28:06;0.00;;;0.00;;
56794;SDS011;42678;59.400;18.410;2022-12-29T10:30:35;0.43;;;0.40;;
56794;SDS011;42678;59.400;18.410;2022-12-29T10:33:02;0.32;;;0.32;;
56794;SDS011;42678;59.400;18.410;2022-12-29T10:35:38;0.15;;;0.15;;
56794;SDS011;42678;59.400;18.410;2022-12-29T10:41:00;0.10;;;0.10;;
56794;SDS011;42678;59.400;18.410;2022-12-29T10:43:28;0.10;;;0.00;;
56794;SDS011;42678;59.400;18.410;2022-12-29T10:45:57;0.00;;;0.00;;
56794;SDS011;42678;59.400;18.410;2022-12-29T10:48:28;0.00;;;0.00;;
56794;SDS011;42678;59.400;18.410;2022-12-29T10:50:56;0.10;;;0.10;;
56794;SDS011;42678;59.400;18.410;2022-12-29T10:53:23;0.00;;;0.00;;
56794;SDS011;42678;59.400;18.410;2022-12-29T10:55:50;0.00;;;0.00;;
56794;SDS011;42678;59.400;18.410;2022-12-29T10:58:16;0.00;;;0.00;;
56794;SDS011;42678;59.400;18.410;2022-12-29T11:00:42;0.00;;;0.00;;
56794;SDS011;42678;59.400;18.410;2022-12-29T11:05:40;0.22;;;0.22;;
56794;SDS011;42678;59.400;18.410;2022-12-29T11:08:17;0.00;;;0.00;;
56794;SDS011;42678;59.400;18.410;2022-12-29T11:10:44;0.00;;;0.00;;
56794;SDS011;42678;59.400;18.410;2022-12-29T11:13:24;0.10;;;0.10;;
56794;SDS011;42678;59.400;18.410;2022-12-29T11:15:50;0.00;;;0.00;;
56794;SDS011;42678;59.400;18.410;2022-12-29T11:20:47;0.28;;;0.28;;
56794;SDS011;42678;59.400;18.410;2022-12-29T11:28:35;0.10;;;0.10;;
56794;SDS011;42678;59.400;18.410;2022-12-29T11:31:01;0.00;;;0.00;;
56794;SDS011;42678;59.400;18.410;2022-12-29T11:33:28;0.30;;;0.30;;
56794;SDS011;42678;59.400;18.410;2022-12-29T11:36:04;0.00;;;0.00;;
56794;SDS011;42678;59.400;18.410;2022-12-29T11:38:34;0.13;;;0.03;;
56794;SDS011;42678;59.400;18.410;2022-12-29T11:41:00;0.00;;;0.00;;
56794;SDS011;42678;59.400;18.410;2022-12-29T11:43:31;0.13;;;0.13;;
56794;SDS011;42678;59.400;18.410;2022-12-29T11:45:58;0.00;;;0.00;;
56794;SDS011;42678;59.400;18.410;2022-12-29T11:48:24;0.05;;;0.03;;
56794;SDS011;42678;59.400;18.410;2022-12-29T11:50:53;0.00;;;0.00;;
56794;SDS011;42678;59.400;18.410;2022-12-29T11:53:34;0.00;;;0.00;;
56794;SDS011;42678;59.400;18.410;2022-12-29T11:56:06;0.00;;;0.00;;
56794;SDS011;42678;59.400;18.410;2022-12-29T11:58:33;0.20;;;0.20;;
56794;SDS011;42678;59.400;18.410;2022-12-29T12:01:41;0.00;;;0.00;;
56794;SDS011;42678;59.400;18.410;2022-12-29T12:04:34;0.32;;;0.32;;
56794;SDS011;42678;59.400;18.410;2022-12-29T12:06:36;0.00;;;0.00;;
56794;SDS011;42678;59.400;18.410;2022-12-29T12:09:06;0.10;;;0.10;;
56794;SDS011;42678;59.400;18.410;2022-12-29T12:11:34;0.15;;;0.10;;
56794;SDS011;42678;59.400;18.410;2022-12-29T12:16:41;0.40;;;0.32;;
56794;SDS011;42678;59.400;18.410;2022-12-29T12:21:40;0.00;;;0.00;;
56794;SDS011;42678;59.400;18.410;2022-12-29T12:24:20;0.20;;;0.10;;
56794;SDS011;42678;59.400;18.410;2022-12-29T12:26:53;0.00;;;0.00;;
56794;SDS011;42678;59.400;18.410;2022-12-29T12:29:34;0.20;;;0.20;;
56794;SDS011;42678;59.400;18.410;2022-12-29T12:34:41;0.00;;;0.00;;
56794;SDS011;42678;59.400;18.410;2022-12-29T12:39:46;0.03;;;0.03;;
56794;SDS011;42678;59.400;18.410;2022-12-29T12:44:53;0.22;;;0.22;;
56794;SDS011;42678;59.400;18.410;2022-12-29T12:48:05;0.00;;;0.00;;
56794;SDS011;42678;59.400;18.410;2022-12-29T12:50:18;0.20;;;0.20;;
56794;SDS011;42678;59.400;18.410;2022-12-29T12:57:53;0.00;;;0.00;;
56794;SDS011;42678;59.400;18.410;2022-12-29T13:00:22;0.00;;;0.00;;
56794;SDS011;42678;59.400;18.410;2022-12-29T13:08:27;0.88;;;0.73;;
56794;SDS011;42678;59.400;18.410;2022-12-29T13:11:01;0.08;;;0.08;;
56794;SDS011;42678;59.400;18.410;2022-12-29T13:21:46;0.00;;;0.00;;
56794;SDS011;42678;59.400;18.410;2022-12-29T13:24:23;0.10;;;0.10;;
56794;SDS011;42678;59.400;18.410;2022-12-29T13:26:53;0.08;;;0.08;;
56794;SDS011;42678;59.400;18.410;2022-12-29T13:29:24;0.00;;;0.00;;
56794;SDS011;42678;59.400;18.410;2022-12-29T13:31:59;0.05;;;0.05;;
56794;SDS011;42678;59.400;18.410;2022-12-29T13:37:13;0.00;;;0.00;;
56794;SDS011;42678;59.400;18.410;2022-12-29T13:39:48;0.00;;;0.00;;
56794;SDS011;42678;59.400;18.410;2022-12-29T13:42:16;0.30;;;0.20;;
56794;SDS011;42678;59.400;18.410;2022-12-29T13:44:44;0.08;;;0.08;;
56794;SDS011;42678;59.400;18.410;2022-12-29T13:49:38;0.00;;;0.00;;
56794;SDS011;42678;59.400;18.410;2022-12-29T13:52:48;0.00;;;0.00;;
56794;SDS011;42678;59.400;18.410;2022-12-29T14:00:21;0.20;;;0.10;;
56794;SDS011;42678;59.400;18.410;2022-12-29T14:03:09;0.00;;;0.00;;
56794;SDS011;42678;59.400;18.410;2022-12-29T14:05:39;0.43;;;0.43;;
56794;SDS011;42678;59.400;18.410;2022-12-29T14:08:05;0.00;;;0.00;;
56794;SDS011;42678;59.400;18.410;2022-12-29T14:13:15;0.20;;;0.20;;
56794;SDS011;42678;59.400;18.410;2022-12-29T14:15:42;0.00;;;0.00;;
56794;SDS011;42678;59.400;18.410;2022-12-29T14:18:16;0.00;;;0.00;;
56794;SDS011;42678;59.400;18.410;2022-12-29T14:23:26;0.00;;;0.00;;
56794;SDS011;42678;59.400;18.410;2022-12-29T14:28:22;0.00;;;0.00;;
56794;SDS011;42678;59.400;18.410;2022-12-29T14:30:52;0.00;;;0.00;;
56794;SDS011;42678;59.400;18.410;2022-12-29T14:33:18;0.45;;;0.43;;
56794;SDS011;42678;59.400;18.410;2022-12-29T14:35:44;0.10;;;0.10;;
56794;SDS011;42678;59.400;18.410;2022-12-29T14:38:15;0.00;;;0.00;;
56794;SDS011;42678;59.400;18.410;2022-12-29T14:40:41;0.55;;;0.55;;
56794;SDS011;42678;59.400;18.410;2022-12-29T14:43:11;0.00;;;0.00;;
56794;SDS011;42678;59.400;18.410;2022-12-29T14:45:37;0.20;;;0.20;;
56794;SDS011;42678;59.400;18.410;2022-12-29T14:48:20;0.00;;;0.00;;
56794;SDS011;42678;59.400;18.410;2022-12-29T14:50:46;0.22;;;0.22;;
56794;SDS011;42678;59.400;18.410;2022-12-29T14:55:56;0.00;;;0.00;;
56794;SDS011;42678;59.400;18.410;2022-12-29T15:00:50;0.25;;;0.25;;
56794;SDS011;42678;59.400;18.410;2022-12-29T15:05:45;0.00;;;0.00;;
56794;SDS011;42678;59.400;18.410;2022-12-29T15:08:12;0.10;;;0.10;;
56794;SDS011;42678;59.400;18.410;2022-12-29T15:10:40;0.17;;;0.15;;
56794;SDS011;42678;59.400;18.410;2022-12-29T15:13:13;0.10;;;0.10;;
56794;SDS011;42678;59.400;18.410;2022-12-29T15:15:40;0.00;;;0.00;;
56794;SDS011;42678;59.400;18.410;2022-12-29T15:20:40;0.00;;;0.00;;
56794;SDS011;42678;59.400;18.410;2022-12-29T15:23:10;1.00;;;0.65;;
56794;SDS011;42678;59.400;18.410;2022-12-29T15:25:37;0.00;;;0.00;;
56794;SDS011;42678;59.400;18.410;2022-12-29T15:28:11;0.00;;;0.00;;
56794;SDS011;42678;59.400;18.410;2022-12-29T15:30:37;0.10;;;0.10;;
56794;SDS011;42678;59.400;18.410;2022-12-29T15:33:18;0.00;;;0.00;;
56794;SDS011;42678;59.400;18.410;2022-12-29T15:35:44;0.00;;;0.00;;
56794;SDS011;42678;59.400;18.410;2022-12-29T15:38:16;0.70;;;0.25;;
56794;SDS011;42678;59.400;18.410;2022-12-29T15:40:43;0.00;;;0.00;;
56794;SDS011;42678;59.400;18.410;2022-12-29T15:45:53;0.10;;;0.05;;
56794;SDS011;42678;59.400;18.410;2022-12-29T15:48:21;0.03;;;0.03;;
56794;SDS011;42678;59.400;18.410;2022-12-29T15:50:48;10.63;;;6.07;;
56794;SDS011;42678;59.400;18.410;2022-12-29T15:53:32;13.18;;;7.47;;
56794;SDS011;42678;59.400;18.410;2022-12-29T15:56:17;12.20;;;6.88;;
56794;SDS011;42678;59.400;18.410;2022-12-29T15:58:45;12.32;;;6.60;;
56794;SDS011;42678;59.400;18.410;2022-12-29T16:04:00;10.07;;;6.85;;
56794;SDS011;42678;59.400;18.410;2022-12-29T16:06:27;11.40;;;6.82;;
56794;SDS011;42678;59.400;18.410;2022-12-29T16:08:57;11.98;;;6.70;;
56794;SDS011;42678;59.400;18.410;2022-12-29T16:13:57;9.75;;;6.50;;
56794;SDS011;42678;59.400;18.410;2022-12-29T16:16:30;8.90;;;6.70;;
56794;SDS011;42678;59.400;18.410;2022-12-29T16:18:56;10.50;;;6.70;;
56794;SDS011;42678;59.400;18.410;2022-12-29T16:21:32;7.95;;;6.28;;
56794;SDS011;42678;59.400;18.410;2022-12-29T16:24:05;13.63;;;7.10;;
56794;SDS011;42678;59.400;18.410;2022-12-29T16:26:31;11.15;;;7.22;;
56794;SDS011;42678;59.400;18.410;2022-12-29T16:28:57;11.52;;;7.90;;
56794;SDS011;42678;59.400;18.410;2022-12-29T16:31:26;11.50;;;8.05;;
56794;SDS011;42678;59.400;18.410;2022-12-29T16:33:54;13.80;;;9.40;;
56794;SDS011;42678;59.400;18.410;2022-12-29T16:36:30;13.95;;;8.82;;
56794;SDS011;42678;59.400;18.410;2022-12-29T16:41:40;17.88;;;10.95;;
56794;SDS011;42678;59.400;18.410;2022-12-29T16:44:19;18.02;;;10.93;;
56794;SDS011;42678;59.400;18.410;2022-12-29T16:46:58;15.75;;;9.20;;
56794;SDS011;42678;59.400;18.410;2022-12-29T16:49:25;15.30;;;9.73;;
56794;SDS011;42678;59.400;18.410;2022-12-29T16:51:51;20.77;;;11.27;;
56794;SDS011;42678;59.400;18.410;2022-12-29T16:54:23;17.50;;;10.90;;
56794;SDS011;42678;59.400;18.410;2022-12-29T16:56:49;16.50;;;9.98;;
56794;SDS011;42678;59.400;18.410;2022-12-29T17:01:41;15.23;;;9.98;;